KART/ART METAR and TAF weather

Enter ICAO airport designator
Station Type Date Time Source
KART METAR 2019/10/20 17:56 UTC NOAA

KART 201756Z AUTO 21007KT 10SM CLR 14/06 A2994 RMK AO2 SLP139 T01440061 10150 20006 56005


Station Type Date Time Source
KART Decoded METAR 2019/10/20 17:56 UTC NOAA

WATERTOWN INTERNATIONAL AIRPORT, NY, United States (KART) 43-59N 076-02W 100M
Oct 20, 2019 - 01:56 PM EDT / 2019.10.20 1756 UTC
Wind: from the SSW (210 degrees) at 8 MPH (7 KT):0
Visibility: 10 mile(s):0
Sky conditions: clear
Temperature: 57.9 F (14.4 C)
Dew Point: 43.0 F (6.1 C)
Relative Humidity: 57%
Pressure (altimeter): 29.94 in. Hg (1013 hPa)
Pressure tendency: 0.01 inches (0.5 hPa) lower than three hours ago
ob: KART 201756Z AUTO 21007KT 10SM CLR 14/06 A2994 RMK AO2 SLP139 T01440061 10150 20006 56005
cycle: 18

Station Type Date Time Source
KART TAF 2019/10/20 18:42 UTC NOAA

TAF KART 201739Z 2018/2118 20008KT P6SM BKN200
FM202300 VRB04KT P6SM FEW250
FM211500 05006KT P6SM FEW250

Example: see airport list